createdAt,value
2018-09-10T00:02:20.955Z,78.60
2018-09-10T00:04:50.387Z,79.96
2018-09-10T00:07:19.805Z,79.25
2018-09-10T00:09:49.671Z,79.66
2018-09-10T00:12:19.099Z,80.41
2018-09-10T00:14:48.839Z,80.24
2018-09-10T00:17:18.305Z,80.60
2018-09-10T00:19:47.782Z,80.39
2018-09-10T00:22:17.216Z,79.83
2018-09-10T00:24:46.690Z,80.13
2018-09-10T00:27:16.159Z,80.19
2018-09-10T00:29:45.658Z,80.79
2018-09-10T00:32:15.174Z,79.70
2018-09-10T00:34:44.631Z,79.81
2018-09-10T00:37:14.111Z,80.70
2018-09-10T00:39:43.567Z,80.26
2018-09-10T00:42:13.174Z,80.41
2018-09-10T00:44:42.626Z,81.17
2018-09-10T00:47:12.113Z,79.60
2018-09-10T00:49:41.549Z,79.54
2018-09-10T00:52:11.112Z,78.55
2018-09-10T00:54:40.614Z,78.37
2018-09-10T00:57:10.090Z,78.37
2018-09-10T00:59:39.547Z,78.25
2018-09-10T01:02:09.074Z,78.02
2018-09-10T01:04:38.555Z,77.57
2018-09-10T01:07:08.122Z,78.25
2018-09-10T01:09:37.613Z,78.88
2018-09-10T01:12:07.179Z,78.06
2018-09-10T01:14:36.667Z,77.73
2018-09-10T01:17:06.483Z,76.87
2018-09-10T01:19:35.978Z,76.70
2018-09-10T01:22:05.479Z,75.72
2018-09-10T01:24:34.901Z,75.89
2018-09-10T01:27:04.843Z,75.70
2018-09-10T01:29:34.279Z,76.57
2018-09-10T01:32:03.761Z,77.35
2018-09-10T01:34:38.592Z,77.01
2018-09-10T01:37:08.050Z,76.63
2018-09-10T01:39:37.515Z,77.81
2018-09-10T01:42:07.368Z,77.81
2018-09-10T01:44:36.841Z,79.49
2018-09-10T01:47:06.562Z,79.34
2018-09-10T01:49:35.997Z,79.27
2018-09-10T01:52:05.460Z,79.62
2018-09-10T01:54:34.901Z,79.61
2018-09-10T01:57:04.338Z,79.32
2018-09-10T01:59:34.083Z,79.79
2018-09-10T02:02:03.560Z,79.61
2018-09-10T02:04:33.045Z,79.98
2018-09-10T02:07:02.574Z,80.22
2018-09-10T02:09:32.017Z,78.58
2018-09-10T02:12:01.499Z,76.86
2018-09-10T02:14:30.969Z,76.54
2018-09-10T02:17:00.486Z,75.61
2018-09-10T02:19:29.912Z,74.87
2018-09-10T02:21:59.448Z,75.41
2018-09-10T02:24:28.894Z,75.68
2018-09-10T02:26:58.438Z,74.99
2018-09-10T02:29:27.922Z,74.94
2018-09-10T02:31:57.373Z,73.92
2018-09-10T02:34:26.824Z,73.40
2018-09-10T02:36:56.335Z,73.33
2018-09-10T02:39:25.766Z,73.04
2018-09-10T02:41:55.572Z,73.71
2018-09-10T02:44:25.052Z,73.38
2018-09-10T02:46:54.528Z,73.89
2018-09-10T02:49:24.032Z,73.51
2018-09-10T02:51:53.515Z,74.21
2018-09-10T02:54:22.968Z,73.51
2018-09-10T02:56:52.409Z,73.73
2018-09-10T02:59:22.125Z,73.67
2018-09-10T03:01:51.573Z,73.74
2018-09-10T03:04:21.033Z,73.46
2018-09-10T03:06:50.859Z,73.54
2018-09-10T03:09:20.313Z,72.51
2018-09-10T03:11:49.840Z,73.39
2018-09-10T03:14:19.335Z,72.70
2018-09-10T03:16:48.800Z,73.54
2018-09-10T03:19:18.344Z,73.81
2018-09-10T03:21:47.882Z,73.62
2018-09-10T03:24:17.395Z,72.85
2018-09-10T03:26:46.824Z,73.30
2018-09-10T03:29:16.296Z,72.40
2018-09-10T03:31:45.793Z,72.38
2018-09-10T03:34:15.338Z,72.16
2018-09-10T03:36:44.827Z,72.47
2018-09-10T03:41:42.905Z,72.48
2018-09-10T03:44:12.396Z,72.89
2018-09-10T03:46:41.832Z,71.95
2018-09-10T03:49:11.290Z,72.42
2018-09-10T03:51:40.820Z,72.94
2018-09-10T03:54:10.311Z,72.01
2018-09-10T03:56:39.778Z,71.40
2018-09-10T03:59:09.465Z,72.00
2018-09-10T04:01:38.973Z,72.13
2018-09-10T04:04:08.472Z,72.64
2018-09-10T04:06:37.971Z,72.36
2018-09-10T04:09:08.577Z,72.38
2018-09-10T04:11:38.165Z,73.28
2018-09-10T04:14:07.638Z,74.20
2018-09-10T04:16:37.252Z,74.44
2018-09-10T04:19:06.882Z,74.41
2018-09-10T04:21:36.486Z,74.21
2018-09-10T04:24:06.040Z,73.09
2018-09-10T04:26:35.650Z,73.56
2018-09-10T04:29:05.485Z,73.58
2018-09-10T04:31:35.009Z,73.59
2018-09-10T04:34:04.716Z,73.66
2018-09-10T04:36:34.243Z,73.22
2018-09-10T04:39:05.068Z,72.79
2018-09-10T04:41:41.742Z,73.11
2018-09-10T04:44:11.349Z,74.14
2018-09-10T04:46:41.070Z,74.04
2018-09-10T04:49:10.715Z,73.71
2018-09-10T04:51:40.282Z,73.14
2018-09-10T04:54:09.902Z,73.27
2018-09-10T04:56:39.512Z,72.92
2018-09-10T04:59:08.986Z,73.81
2018-09-10T05:01:38.487Z,73.79
2018-09-10T05:04:08.122Z,73.63
2018-09-10T05:06:37.624Z,74.57
2018-09-10T05:09:08.900Z,74.40
2018-09-10T05:11:38.494Z,74.07
2018-09-10T05:14:08.182Z,73.97
2018-09-10T05:16:37.762Z,73.56
2018-09-10T05:19:07.303Z,73.37
2018-09-10T05:21:36.856Z,72.42
2018-09-10T05:24:06.371Z,72.66
2018-09-10T05:26:35.865Z,72.99
2018-09-10T05:29:05.444Z,71.89
2018-09-10T05:31:35.013Z,72.82
2018-09-10T05:34:04.646Z,73.19
2018-09-10T05:36:34.122Z,73.29
2018-09-10T05:39:04.393Z,74.11
2018-09-10T05:41:33.846Z,74.42
2018-09-10T05:44:03.530Z,74.44
2018-09-10T05:46:33.052Z,75.41
2018-09-10T05:49:02.644Z,75.54
2018-09-10T05:51:32.106Z,74.93
2018-09-10T05:54:02.251Z,73.91
2018-09-10T05:56:31.950Z,74.40
2018-09-10T05:59:01.420Z,72.49
2018-09-10T06:01:31.056Z,71.84
2018-09-10T06:04:00.522Z,71.76
2018-09-10T06:06:30.114Z,72.12
2018-09-10T06:08:59.559Z,70.73
2018-09-10T06:11:29.067Z,69.36
2018-09-10T06:13:58.542Z,68.57
2018-09-10T06:16:28.075Z,68.70
2018-09-10T06:18:57.640Z,67.44
2018-09-10T06:21:27.236Z,67.26
2018-09-10T06:23:56.957Z,65.72
2018-09-10T06:26:26.458Z,66.69
2018-09-10T06:28:56.393Z,66.67
2018-09-10T06:31:26.340Z,66.19
2018-09-10T06:33:56.787Z,66.75
2018-09-10T06:36:26.993Z,67.68
2018-09-10T06:38:56.629Z,67.82
2018-09-10T06:41:26.063Z,68.32
2018-09-10T06:43:55.642Z,67.80
2018-09-10T06:46:25.234Z,68.20
2018-09-10T06:48:54.745Z,68.39
2018-09-10T06:51:24.250Z,69.44
2018-09-10T06:53:53.781Z,69.18
2018-09-10T06:56:23.722Z,68.85
2018-09-10T06:58:53.322Z,69.73
2018-09-10T07:01:22.819Z,68.89
2018-09-10T07:03:52.285Z,68.33
2018-09-10T07:06:21.816Z,68.06
2018-09-10T07:08:51.401Z,68.99
2018-09-10T07:11:20.951Z,68.93
2018-09-10T07:13:50.595Z,68.88
2018-09-10T07:16:20.157Z,68.48
2018-09-10T07:18:49.756Z,68.76
2018-09-10T07:21:19.247Z,68.01
2018-09-10T07:23:48.800Z,67.83
2018-09-10T07:26:18.309Z,68.29
2018-09-10T07:28:47.721Z,67.67
2018-09-10T07:31:17.400Z,67.93
2018-09-10T07:33:47.208Z,67.95
2018-09-10T07:36:16.698Z,67.52
2018-09-10T07:38:46.321Z,67.91
2018-09-10T07:41:15.823Z,67.18
2018-09-10T07:43:45.406Z,66.23
2018-09-10T07:46:14.980Z,66.66
2018-09-10T07:48:44.432Z,65.98
2018-09-10T07:51:13.907Z,66.60
2018-09-10T07:53:43.654Z,66.56
2018-09-10T07:56:13.125Z,67.12
2018-09-10T07:58:42.796Z,67.54
2018-09-10T08:01:12.372Z,66.86
2018-09-10T08:03:42.053Z,66.90
2018-09-10T08:06:11.593Z,66.73
2018-09-10T08:08:41.184Z,66.75
2018-09-10T08:11:10.693Z,67.24
2018-09-10T08:13:40.205Z,66.98
2018-09-10T08:16:09.766Z,68.17
2018-09-10T08:18:39.309Z,67.01
2018-09-10T08:21:09.056Z,67.24
2018-09-10T08:23:38.584Z,67.72
2018-09-10T08:26:08.131Z,66.85
2018-09-10T08:28:37.716Z,67.08
2018-09-10T08:31:07.162Z,67.43
2018-09-10T08:33:36.689Z,66.92
2018-09-10T08:36:06.458Z,66.97
2018-09-10T08:38:36.014Z,65.99
2018-09-10T08:41:05.585Z,65.97
2018-09-10T08:43:35.003Z,66.26
2018-09-10T08:46:04.642Z,65.42
2018-09-10T08:48:34.096Z,65.13
2018-09-10T08:51:03.526Z,66.37
2018-09-10T08:53:33.090Z,65.97
2018-09-10T08:56:03.240Z,66.70
2018-09-10T08:58:32.503Z,66.76
2018-09-10T09:01:02.446Z,66.60
2018-09-10T09:03:32.064Z,66.57
2018-09-10T09:06:01.646Z,66.38
2018-09-10T09:08:31.207Z,66.22
2018-09-10T09:11:00.737Z,66.44
2018-09-10T09:13:30.197Z,66.16
2018-09-10T09:15:59.721Z,66.91
2018-09-10T09:18:29.245Z,66.96
2018-09-10T09:20:58.690Z,67.58
2018-09-10T09:23:28.409Z,67.57
2018-09-10T09:25:57.851Z,68.10
2018-09-10T09:28:27.341Z,68.25
2018-09-10T09:30:57.110Z,68.18
2018-09-10T09:33:26.765Z,67.77
2018-09-10T09:36:01.454Z,68.51
2018-09-10T09:38:36.215Z,68.69
2018-09-10T09:41:11.013Z,67.83
2018-09-10T09:43:45.662Z,67.42
2018-09-10T09:46:17.496Z,67.76
2018-09-10T09:48:46.952Z,68.27
2018-09-10T09:51:16.498Z,67.82
2018-09-10T09:53:45.962Z,67.45
2018-09-10T09:56:15.663Z,68.37
2018-09-10T09:58:45.247Z,67.70
2018-09-10T10:01:20.150Z,67.59
2018-09-10T10:03:55.312Z,67.33
2018-09-10T10:06:25.884Z,67.78
2018-09-10T10:08:55.384Z,67.99
2018-09-10T10:11:25.043Z,67.14
2018-09-10T10:13:54.569Z,67.62
2018-09-10T10:16:24.277Z,66.66
2018-09-10T10:18:53.820Z,66.54
2018-09-10T10:21:23.420Z,67.11
2018-09-10T10:23:53.074Z,66.61
2018-09-10T10:26:22.661Z,67.36
2018-09-10T10:28:52.205Z,66.90
2018-09-10T10:31:21.897Z,67.33
2018-09-10T10:33:51.845Z,66.68
2018-09-10T10:36:21.592Z,66.30
2018-09-10T10:38:51.284Z,67.09
2018-09-10T10:41:21.325Z,66.39
2018-09-10T10:43:50.852Z,64.35
2018-09-10T10:46:20.345Z,63.10
2018-09-10T10:48:49.866Z,63.30
2018-09-10T10:51:19.338Z,63.07
2018-09-10T10:53:48.925Z,63.42
2018-09-10T10:56:18.394Z,63.79
2018-09-10T10:58:47.953Z,62.88
2018-09-10T11:01:17.646Z,61.29
2018-09-10T11:03:47.199Z,60.48
2018-09-10T11:06:16.877Z,60.10
2018-09-10T11:08:46.445Z,60.16
2018-09-10T11:11:16.046Z,59.93
2018-09-10T11:13:45.662Z,59.38
2018-09-10T11:16:15.151Z,58.24
2018-09-10T11:18:44.814Z,57.50
2018-09-10T11:21:14.356Z,57.03
2018-09-10T11:23:43.929Z,57.83
2018-09-10T11:26:13.448Z,56.89
2018-09-10T11:28:43.114Z,57.03
2018-09-10T11:31:12.587Z,57.43
2018-09-10T11:33:42.083Z,56.69
2018-09-10T11:36:11.760Z,57.60
2018-09-10T11:38:41.242Z,55.71
2018-09-10T11:41:10.844Z,55.98
2018-09-10T11:43:40.573Z,54.39
2018-09-10T11:46:10.031Z,54.04
2018-09-10T11:48:39.473Z,51.44
2018-09-10T11:51:09.207Z,51.95
2018-09-10T11:53:38.674Z,51.01
2018-09-10T11:56:08.815Z,51.56
2018-09-10T11:58:38.401Z,51.23
2018-09-10T12:01:08.052Z,49.61
2018-09-10T12:03:37.605Z,49.12
2018-09-10T12:06:07.448Z,49.91
2018-09-10T12:08:37.173Z,51.43
2018-09-10T12:11:07.172Z,51.22
2018-09-10T12:13:36.918Z,50.27
2018-09-10T12:16:06.809Z,51.05
2018-09-10T12:18:36.412Z,50.34
2018-09-10T12:21:06.210Z,50.73
2018-09-10T12:23:36.254Z,50.35
2018-09-10T12:26:05.728Z,50.04
2018-09-10T12:28:35.296Z,50.55
2018-09-10T12:31:04.903Z,50.71
2018-09-10T12:33:34.416Z,49.69
2018-09-10T12:36:06.097Z,50.22
2018-09-10T12:38:35.605Z,50.19
2018-09-10T12:41:05.225Z,50.38
2018-09-10T12:43:34.884Z,50.51
2018-09-10T12:46:04.504Z,52.00
2018-09-10T12:48:34.018Z,53.50
2018-09-10T12:51:04.093Z,55.31
2018-09-10T12:53:33.591Z,54.90
2018-09-10T12:56:03.259Z,55.36
2018-09-10T12:58:32.745Z,53.98
2018-09-10T13:01:02.281Z,54.54
2018-09-10T13:03:31.840Z,55.38
2018-09-10T13:06:01.390Z,56.52
2018-09-10T13:08:30.917Z,57.65
2018-09-10T13:11:00.441Z,57.79
2018-09-10T13:13:29.967Z,57.60
2018-09-10T13:16:00.046Z,58.20
2018-09-10T13:18:29.552Z,56.90
2018-09-10T13:20:59.067Z,57.34
2018-09-10T13:23:28.666Z,57.53
2018-09-10T13:25:58.206Z,56.26
2018-09-10T13:28:27.842Z,56.67
2018-09-10T13:30:57.420Z,56.66
2018-09-10T13:33:27.144Z,57.64
2018-09-10T13:35:56.655Z,56.35
2018-09-10T13:38:26.138Z,57.20
2018-09-10T13:40:55.681Z,55.82
2018-09-10T13:43:25.206Z,55.83
2018-09-10T13:45:54.784Z,56.96
2018-09-10T13:48:24.398Z,56.25
2018-09-10T13:50:53.835Z,55.36
2018-09-10T13:53:23.304Z,56.58
2018-09-10T13:55:52.795Z,56.67
2018-09-10T13:58:22.330Z,58.00
2018-09-10T14:00:51.903Z,58.24
2018-09-10T14:03:21.382Z,58.84
2018-09-10T14:05:50.911Z,58.59
2018-09-10T14:08:20.443Z,58.34
2018-09-10T14:10:50.093Z,59.00
2018-09-10T14:13:19.616Z,58.74
2018-09-10T14:15:49.285Z,59.44
2018-09-10T14:18:18.871Z,59.11
2018-09-10T14:20:48.200Z,59.63
2018-09-10T14:23:17.868Z,60.16
2018-09-10T14:25:47.577Z,60.23
2018-09-10T14:28:17.171Z,61.01
2018-09-10T14:30:46.767Z,61.22
2018-09-10T14:33:16.272Z,61.83
2018-09-10T14:35:45.730Z,61.48
2018-09-10T14:38:15.319Z,61.34
2018-09-10T14:40:44.853Z,61.47
2018-09-10T14:43:14.991Z,62.53
2018-09-10T14:45:44.757Z,62.22
2018-09-10T14:48:14.398Z,63.25
2018-09-10T14:50:43.849Z,63.06
2018-09-10T14:53:13.311Z,63.29
2018-09-10T14:55:42.869Z,63.38
2018-09-10T14:58:12.447Z,64.39
2018-09-10T15:00:42.191Z,63.68
2018-09-10T15:03:11.687Z,64.52
2018-09-10T15:05:41.149Z,64.23
2018-09-10T15:08:10.835Z,63.92
2018-09-10T15:10:40.439Z,64.36
2018-09-10T15:13:09.925Z,64.36
2018-09-10T15:15:39.436Z,64.76
2018-09-10T15:18:08.951Z,64.58
2018-09-10T15:20:38.387Z,64.40
2018-09-10T15:23:07.880Z,64.08
2018-09-10T15:25:37.382Z,64.36
2018-09-10T15:28:07.009Z,64.27
2018-09-10T15:30:36.738Z,64.20
2018-09-10T15:33:06.577Z,64.74
2018-09-10T15:35:36.436Z,64.08
2018-09-10T15:38:06.044Z,64.35
2018-09-10T15:40:35.696Z,64.46
2018-09-10T15:43:05.481Z,64.76
2018-09-10T15:45:34.941Z,65.65
2018-09-10T15:48:04.462Z,65.21
2018-09-10T15:50:33.992Z,65.08
2018-09-10T15:53:03.564Z,65.61
2018-09-10T15:55:33.136Z,65.03
2018-09-10T15:58:02.773Z,65.90
2018-09-10T16:00:32.562Z,65.32
2018-09-10T16:03:02.936Z,65.09
2018-09-10T16:05:32.736Z,65.64
2018-09-10T16:08:04.022Z,65.43
2018-09-10T16:10:34.389Z,66.31
2018-09-10T16:13:04.343Z,66.23
2018-09-10T16:15:35.607Z,66.54
2018-09-10T16:18:05.353Z,65.60
2018-09-10T16:20:35.655Z,66.51
2018-09-10T16:23:06.428Z,66.65
2018-09-10T16:25:36.778Z,66.63
2018-09-10T16:28:08.936Z,66.19
2018-09-10T16:30:39.145Z,66.06
2018-09-10T16:33:09.483Z,66.47
2018-09-10T16:35:40.998Z,66.08
2018-09-10T16:38:10.507Z,66.64
2018-09-10T16:40:42.045Z,65.99
2018-09-10T16:43:11.642Z,66.50
2018-09-10T16:45:41.417Z,66.76
2018-09-10T16:48:11.880Z,67.28
2018-09-10T16:50:42.367Z,67.19
2018-09-10T16:53:12.255Z,66.81
2018-09-10T16:55:42.006Z,67.42
2018-09-10T16:58:53.849Z,66.97
2018-09-10T17:01:24.101Z,68.19
2018-09-10T17:03:53.760Z,68.04
2018-09-10T17:06:26.649Z,67.85
2018-09-10T17:08:57.916Z,67.46
2018-09-10T17:11:27.571Z,68.55
2018-09-10T17:13:57.942Z,67.79
2018-09-10T17:16:28.455Z,67.90
2018-09-10T17:18:59.556Z,68.16
2018-09-10T17:21:29.798Z,68.87
2018-09-10T17:24:00.485Z,68.79
2018-09-10T17:26:31.656Z,68.86
2018-09-10T17:29:02.942Z,68.68
2018-09-10T17:31:32.444Z,68.39
2018-09-10T17:34:03.804Z,69.47
2018-09-10T17:36:34.312Z,69.73
2018-09-10T17:39:04.111Z,69.80
2018-09-10T17:41:35.734Z,70.08
2018-09-10T17:44:05.965Z,70.35
2018-09-10T17:46:35.892Z,70.29
2018-09-10T17:49:06.737Z,70.74
2018-09-10T17:51:36.381Z,71.32
2018-09-10T17:54:06.300Z,71.67
2018-09-10T17:56:36.436Z,70.97
2018-09-10T17:59:07.093Z,71.70
2018-09-10T18:01:37.701Z,71.57
2018-09-10T18:04:07.523Z,72.10
2018-09-10T18:06:37.551Z,72.48
2018-09-10T18:09:12.305Z,72.48
2018-09-10T18:12:15.514Z,71.99
2018-09-10T18:14:45.275Z,72.40
2018-09-10T18:17:16.015Z,72.64
2018-09-10T18:19:46.468Z,72.87
2018-09-10T18:22:17.113Z,73.02
2018-09-10T18:24:46.825Z,73.04
2018-09-10T18:27:17.726Z,72.29
2018-09-10T18:29:48.881Z,72.93
2018-09-10T18:32:19.385Z,72.00
2018-09-10T18:34:48.970Z,72.55
2018-09-10T18:37:23.744Z,71.85
2018-09-10T18:39:55.557Z,71.89
2018-09-10T18:42:28.673Z,72.94
2018-09-10T18:44:59.428Z,72.82
2018-09-10T18:47:29.208Z,74.97
2018-09-10T18:50:00.089Z,73.66
2018-09-10T18:52:30.290Z,73.81
2018-09-10T18:55:00.836Z,73.06
2018-09-10T18:57:30.513Z,73.61
2018-09-10T19:00:01.488Z,72.93
2018-09-10T19:02:31.086Z,74.04
2018-09-10T19:05:05.374Z,73.44
2018-09-10T19:07:36.382Z,73.53
2018-09-10T19:10:07.288Z,74.31
2018-09-10T19:12:36.781Z,73.92
2018-09-10T19:15:07.929Z,74.33
2018-09-10T19:17:37.545Z,74.49
2018-09-10T19:20:07.154Z,74.27
2018-09-10T19:22:39.187Z,74.42
2018-09-10T19:25:09.586Z,74.34
2018-09-10T19:27:39.078Z,73.77
2018-09-10T19:30:10.488Z,74.08
2018-09-10T19:32:41.477Z,74.27
2018-09-10T19:35:12.028Z,74.62
2018-09-10T19:37:41.507Z,74.21
2018-09-10T19:40:12.124Z,74.13
2018-09-10T19:42:41.743Z,75.00
2018-09-10T19:45:11.314Z,75.28
2018-09-10T19:47:40.872Z,75.84
2018-09-10T19:50:10.481Z,75.61
2018-09-10T19:52:42.201Z,75.60
2018-09-10T19:55:11.671Z,76.90
2018-09-10T19:57:41.401Z,76.91
2018-09-10T20:00:10.903Z,77.10
2018-09-10T20:02:40.394Z,77.86
2018-09-10T20:05:10.810Z,78.26
2018-09-10T20:07:40.378Z,78.62
2018-09-10T20:10:09.916Z,80.36
2018-09-10T20:12:40.070Z,80.10
2018-09-10T20:15:10.068Z,79.60
2018-09-10T20:17:39.552Z,80.37
2018-09-10T20:20:10.223Z,80.69
2018-09-10T20:22:40.395Z,82.28
2018-09-10T20:25:10.851Z,82.89
2018-09-10T20:27:41.480Z,83.06
2018-09-10T20:30:11.993Z,82.79
2018-09-10T20:32:42.540Z,83.02
2018-09-10T20:35:12.179Z,83.05
2018-09-10T20:37:41.697Z,83.43
2018-09-10T20:43:09.553Z,84.01
2018-09-10T20:45:40.185Z,84.28
2018-09-10T20:48:09.691Z,83.67
2018-09-10T20:50:39.603Z,83.82
2018-09-10T20:53:09.486Z,84.26
2018-09-10T20:55:39.832Z,85.27
2018-09-10T20:58:09.976Z,84.50
2018-09-10T21:00:40.158Z,85.00
2018-09-10T21:03:09.698Z,84.04
2018-09-10T21:05:39.211Z,85.02
2018-09-10T21:08:11.164Z,85.60
2018-09-10T21:10:41.194Z,85.20
2018-09-10T21:13:10.774Z,84.83
2018-09-10T21:15:40.326Z,85.16
2018-09-10T21:18:09.920Z,83.63
2018-09-10T21:20:39.456Z,83.36
2018-09-10T21:23:09.966Z,82.68
2018-09-10T21:25:40.092Z,82.63
2018-09-10T21:28:10.523Z,82.04
2018-09-10T21:30:41.477Z,81.41
2018-09-10T21:33:12.202Z,80.45
2018-09-10T21:35:41.636Z,82.24
2018-09-10T21:38:11.160Z,81.50
2018-09-10T21:40:41.605Z,82.12
2018-09-10T21:43:11.880Z,81.45
2018-09-10T21:45:41.401Z,81.67
2018-09-10T21:48:11.812Z,82.32
2018-09-10T21:50:42.112Z,81.42
2018-09-10T21:53:11.629Z,80.42
2018-09-10T21:55:41.234Z,80.48
2018-09-10T21:58:11.196Z,80.68
2018-09-10T22:00:46.527Z,80.19
2018-09-10T22:03:16.043Z,80.95
2018-09-10T22:05:46.107Z,81.45
2018-09-10T22:08:16.047Z,81.53
2018-09-10T22:10:47.315Z,81.54
2018-09-10T22:13:16.847Z,81.28
2018-09-10T22:15:46.379Z,80.77
2018-09-10T22:18:33.707Z,80.49
2018-09-10T22:21:06.304Z,80.99
2018-09-10T22:23:35.851Z,80.38
2018-09-10T22:26:05.474Z,80.56
2018-09-10T22:28:35.434Z,80.83
2018-09-10T22:31:06.055Z,80.35
2018-09-10T22:33:35.566Z,79.95
2018-09-10T22:36:06.071Z,80.30
2018-09-10T22:38:35.719Z,80.25
2018-09-10T22:41:06.315Z,80.13
2018-09-10T22:43:36.150Z,80.32
2018-09-10T22:46:08.767Z,79.68
2018-09-10T22:48:39.266Z,79.70
2018-09-10T22:51:09.291Z,80.04
2018-09-10T22:53:38.795Z,79.65
2018-09-10T22:56:09.704Z,79.63
2018-09-10T22:58:39.339Z,80.32
2018-09-10T23:01:08.901Z,80.53
2018-09-10T23:03:39.323Z,80.06
2018-09-10T23:06:09.169Z,79.82
2018-09-10T23:08:38.671Z,80.88
2018-09-10T23:11:09.063Z,81.00
2018-09-10T23:13:38.982Z,80.40
2018-09-10T23:16:09.631Z,80.78
2018-09-10T23:18:40.295Z,80.66
2018-09-10T23:21:09.783Z,81.23
2018-09-10T23:23:39.642Z,80.48
2018-09-10T23:26:11.707Z,80.62
2018-09-10T23:28:41.349Z,78.78
2018-09-10T23:34:08.633Z,78.41
2018-09-10T23:36:40.577Z,77.98
2018-09-10T23:39:11.709Z,77.58
2018-09-10T23:41:41.233Z,76.85
2018-09-10T23:44:11.161Z,77.48
2018-09-10T23:46:40.740Z,76.20
2018-09-10T23:49:12.194Z,75.69
2018-09-10T23:51:42.592Z,75.83
2018-09-10T23:54:12.098Z,76.79
2018-09-10T23:56:41.621Z,76.00
2018-09-10T23:59:11.071Z,76.14
